Wanblee, South Dakota
Current Conditions -  °F | °C
As of 9:55 AM on Thursday 30 Oct 2014 (Local Time) from KPHP Reporting Station
Clear Clear  
Wind Chill: 39°   Ceiling: Unl
Heat Index: 46°   Visibility: 10mi
Dew Point: 35°   Wind: 16mph
Humidity: 66%   Direction: 330°NNW
Pressure: 30.3"   Gusts: NA
Location:  43.57°N, 101.66°W
Report Text: KPHP 301555Z AUTO 33014KT 10SM CLR 08/02 A3030 RMK AO2 SLP270 T00780017
Loading
Personal Weather Stations






























Interactive Weather Map
Tropical Storm Tracking
New forecast layout! Learn more

10-Day Weather Forecast

Advertisements
Track Severe Weather on mobile